Time;durP1;ratioP1;P1;durP2;ratioP2;P2;SDS_P1;SDS_P2;PMS_P1;PMS_P2;Temp;Humidity;BMP_temperature;BMP_pressure;BME280_temperature;BME280_humidity;BME280_pressure;Samples;Min_cycle;Max_cycle;Signal;HPM_P1;HPM_P2
2021/07/14 00:02:05;;;;;;;;;;;;;;;17.90;78.07;101454.78;5114177;28;19924;-72
2021/07/14 00:04:31;;;;;;;;;;;;;;;17.78;78.62;101459.16;5114263;28;20374;-72
2021/07/14 00:06:58;;;;;;;;;;;;;;;17.92;78.10;101459.94;5114186;28;19931;-72
2021/07/14 00:09:26;;;;;;;;;;;;;;;17.91;77.95;101464.38;5114181;28;19947;-72
2021/07/14 00:11:56;;;;;;;;;;;;;;;17.91;78.16;101460.91;5114343;28;20286;-72
2021/07/14 00:17:27;;;;;;;;;;;;;;;17.82;78.60;101454.53;5113910;28;20462;-72
2021/07/14 00:22:40;;;;;;;;;;;;;;;17.76;78.94;101458.41;5114085;28;19976;-72
2021/07/14 00:25:11;;;;;;;;;;;;;;;17.82;78.56;101463.25;5113950;28;19924;-72
2021/07/14 00:27:39;;;;;;;;;;;;;;;17.77;78.73;101460.09;5113844;28;20297;-73
2021/07/14 00:30:09;;;;;;;;;;;;;;;17.80;78.94;101464.31;5113727;28;20018;-72
2021/07/14 00:32:36;;;;;;;;;;;;;;;17.77;78.93;101464.50;5113662;28;20275;-72
2021/07/14 00:35:06;;;;;;;;;;;;;;;17.77;78.82;101467.16;5113984;28;19977;-72
2021/07/14 00:37:32;;;;;;;;;;;;;;;17.76;78.84;101468.94;5113632;28;20402;-72
2021/07/14 00:39:59;;;;;;;;;;;;;;;17.75;79.02;101464.66;5113448;28;20389;-72
2021/07/14 00:42:27;;;;;;;;;;;;;;;17.74;78.98;101460.31;5113839;28;20250;-72
2021/07/14 00:44:55;;;;;;;;;;;;;;;17.71;79.46;101462.34;5113550;28;19923;-72
2021/07/14 00:47:25;;;;;;;;;;;;;;;17.61;79.98;101452.50;5113118;28;20293;-72
2021/07/14 00:49:52;;;;;;;;;;;;;;;17.60;80.16;101450.81;5113865;28;19923;-73
2021/07/14 00:52:19;;;;;;;;;;;;;;;17.81;79.06;101452.84;5113201;28;19931;-72
2021/07/14 00:54:46;;;;;;;;;;;;;;;17.83;78.61;101453.59;5113461;28;19924;-72
2021/07/14 00:57:15;;;;;;;;;;;;;;;17.85;78.60;101446.38;5113212;28;19955;-72
2021/07/14 00:59:43;;;;;;;;;;;;;;;17.86;78.46;101444.63;5113564;28;19924;-72
2021/07/14 01:02:09;;;;;;;;;;;;;;;17.89;78.74;101445.22;5113207;28;19927;-72
2021/07/14 01:04:38;;;;;;;;;;;;;;;17.88;78.45;101440.91;5113321;28;20378;-72
2021/07/14 01:07:08;;;;;;;;;;;;;;;17.83;79.03;101443.06;5113029;28;20392;-72
2021/07/14 01:09:40;;;;;;;;;;;;;;;17.90;78.27;101440.78;5113116;28;19924;-72
2021/07/14 01:12:09;;;;;;;;;;;;;;;18.02;77.88;101448.59;5112926;28;19923;-72
2021/07/14 01:14:40;;;;;;;;;;;;;;;18.03;77.85;101441.53;5113389;28;19924;-72
2021/07/14 01:17:10;;;;;;;;;;;;;;;18.08;77.99;101435.94;5113198;28;19930;-72
2021/07/14 01:19:43;;;;;;;;;;;;;;;18.06;78.11;101439.53;5113226;28;19923;-72
2021/07/14 01:22:16;;;;;;;;;;;;;;;18.03;77.67;101438.91;5113075;28;20275;-72
2021/07/14 01:24:49;;;;;;;;;;;;;;;18.02;77.69;101443.34;5113302;28;19931;-72
2021/07/14 01:27:19;;;;;;;;;;;;;;;17.91;78.21;101437.22;5112694;28;19924;-72
2021/07/14 01:29:49;;;;;;;;;;;;;;;17.81;79.00;101437.06;5112870;28;19930;-72
2021/07/14 01:32:16;;;;;;;;;;;;;;;17.67;79.75;101443.31;5112495;28;19931;-72
2021/07/14 01:34:44;;;;;;;;;;;;;;;17.66;79.83;101439.00;5112786;28;19931;-73
2021/07/14 01:37:11;;;;;;;;;;;;;;;17.62;79.81;101437.53;5112747;28;19924;-72
2021/07/14 01:39:39;;;;;;;;;;;;;;;17.64;80.01;101435.63;5112933;28;19924;-72
2021/07/14 01:42:06;;;;;;;;;;;;;;;17.69;79.55;101435.31;5113066;28;19924;-72
2021/07/14 01:44:35;;;;;;;;;;;;;;;17.91;78.50;101442.47;5112899;28;19935;-72
2021/07/14 01:47:02;;;;;;;;;;;;;;;18.06;78.13;101436.06;5112632;28;20294;-72
2021/07/14 01:49:31;;;;;;;;;;;;;;;17.86;79.03;101437.56;5112360;28;19930;-72
2021/07/14 01:51:59;;;;;;;;;;;;;;;18.10;77.90;101439.28;5112896;28;20427;-72
2021/07/14 01:54:27;;;;;;;;;;;;;;;18.09;77.25;101442.88;5117022;28;19935;-72
2021/07/14 01:56:55;;;;;;;;;;;;;;;17.95;78.54;101436.84;5116607;28;20294;-72
2021/07/14 01:59:22;;;;;;;;;;;;;;;17.89;78.62;101436.47;5116247;28;19932;-72
2021/07/14 02:01:52;;;;;;;;;;;;;;;17.84;78.76;101431.56;5116593;28;19924;-72
2021/07/14 02:04:31;;;;;;;;;;;;;;;17.49;79.57;101428.88;5116690;28;19935;-72
2021/07/14 02:06:58;;;;;;;;;;;;;;;17.63;79.58;101433.97;5116907;28;20427;-72
2021/07/14 02:09:25;;;;;;;;;;;;;;;17.43;79.98;101440.69;5116203;28;19924;-72
2021/07/14 02:11:52;;;;;;;;;;;;;;;17.41;80.32;101438.16;5116698;28;19924;-72
2021/07/14 02:14:21;;;;;;;;;;;;;;;17.35;80.13;101443.88;5116473;28;19931;-73
2021/07/14 02:16:48;;;;;;;;;;;;;;;17.20;80.87;101431.84;5116746;28;19946;-72
2021/07/14 02:19:18;;;;;;;;;;;;;;;17.37;80.18;101434.09;5116146;28;20389;-72
2021/07/14 02:21:44;;;;;;;;;;;;;;;17.18;80.89;101431.09;5116059;28;20370;-72
2021/07/14 02:24:12;;;;;;;;;;;;;;;17.40;80.51;101430.41;5116275;28;19930;-72
2021/07/14 02:26:39;;;;;;;;;;;;;;;17.56;80.04;101430.09;5116194;28;19934;-72
2021/07/14 02:29:06;;;;;;;;;;;;;;;17.62;79.01;101421.75;5116418;28;19923;-72
2021/07/14 02:31:33;;;;;;;;;;;;;;;17.62;79.70;101416.47;5116388;28;19959;-72
2021/07/14 02:33:59;;;;;;;;;;;;;;;17.70;79.28;101418.53;5116290;28;19931;-73
2021/07/14 02:36:30;;;;;;;;;;;;;;;17.81;78.66;101416.84;5115828;28;19923;-72
2021/07/14 02:38:59;;;;;;;;;;;;;;;17.74;78.40;101415.56;5115994;28;19930;-72
2021/07/14 02:41:29;;;;;;;;;;;;;;;17.94;78.21;101431.72;5116087;28;20018;-72
2021/07/14 02:43:58;;;;;;;;;;;;;;;17.97;77.02;101428.84;5115937;28;20282;-72
2021/07/14 02:46:26;;;;;;;;;;;;;;;17.93;77.51;101430.88;5115729;28;19924;-72
2021/07/14 02:48:54;;;;;;;;;;;;;;;18.02;76.75;101432.81;5115788;28;19963;-72
2021/07/14 02:51:22;;;;;;;;;;;;;;;18.14;76.49;101432.84;5115580;28;19931;-72
2021/07/14 02:53:51;;;;;;;;;;;;;;;18.15;76.24;101434.50;5115853;28;19924;-72
2021/07/14 02:56:21;;;;;;;;;;;;;;;18.17;76.19;101430.81;5115637;28;19930;-72
2021/07/14 02:58:49;;;;;;;;;;;;;;;18.15;75.65;101429.25;5115497;28;19923;-72
2021/07/14 03:01:16;;;;;;;;;;;;;;;18.11;76.65;101436.56;5115148;28;19924;-72
2021/07/14 03:03:43;;;;;;;;;;;;;;;18.16;76.86;101438.81;5114602;28;19928;-72
2021/07/14 03:06:10;;;;;;;;;;;;;;;18.13;77.36;101444.31;5115355;28;19928;-73
2021/07/14 03:08:37;;;;;;;;;;;;;;;18.32;76.44;101441.97;5115656;28;19930;-73
2021/07/14 03:11:05;;;;;;;;;;;;;;;18.43;74.88;101441.97;5115958;28;19928;-72
2021/07/14 03:13:34;;;;;;;;;;;;;;;18.47;75.10;101446.06;5115066;28;19924;-72
2021/07/14 03:16:02;;;;;;;;;;;;;;;18.50;74.87;101440.53;5115223;28;19930;-72
2021/07/14 03:18:30;;;;;;;;;;;;;;;18.45;75.27;101439.22;5115226;28;19943;-72
2021/07/14 03:20:58;;;;;;;;;;;;;;;18.44;75.37;101429.63;5115477;28;19928;-72
2021/07/14 03:23:25;;;;;;;;;;;;;;;18.51;75.72;101428.19;5115130;28;19924;-72
2021/07/14 03:25:52;;;;;;;;;;;;;;;18.56;76.43;101430.47;5115306;28;19931;-72
2021/07/14 03:28:21;;;;;;;;;;;;;;;18.53;75.95;101433.38;5115160;28;19931;-72
2021/07/14 03:30:48;;;;;;;;;;;;;;;18.62;76.02;101430.81;5114839;28;20282;-72
2021/07/14 03:33:16;;;;;;;;;;;;;;;18.53;75.63;101431.56;5114694;28;19930;-73
2021/07/14 03:35:43;;;;;;;;;;;;;;;18.61;75.67;101426.53;5115181;28;19946;-71
2021/07/14 03:38:10;;;;;;;;;;;;;;;18.68;75.78;101427.72;5114506;28;19928;-71
2021/07/14 03:40:39;;;;;;;;;;;;;;;18.75;75.69;101427.22;5115016;28;19973;-71
2021/07/14 03:43:07;;;;;;;;;;;;;;;18.71;75.48;101424.00;5115031;28;19928;-71
2021/07/14 03:45:36;;;;;;;;;;;;;;;18.64;77.17;101415.72;5114633;28;20382;-71
2021/07/14 03:48:04;;;;;;;;;;;;;;;18.84;76.27;101431.81;5115108;28;19924;-71
2021/07/14 03:50:31;;;;;;;;;;;;;;;18.84;75.99;101426.53;5114635;28;19924;-71
2021/07/14 03:52:58;;;;;;;;;;;;;;;18.88;76.67;101423.56;5114470;28;19924;-71
2021/07/14 03:55:25;;;;;;;;;;;;;;;18.95;76.11;101423.88;5114432;28;19924;-70
2021/07/14 03:57:51;;;;;;;;;;;;;;;18.95;76.41;101415.13;5114340;28;19931;-71
2021/07/14 04:00:18;;;;;;;;;;;;;;;18.98;77.04;101406.97;5114059;28;20370;-71
2021/07/14 04:02:46;;;;;;;;;;;;;;;18.98;77.19;101415.72;5114258;28;20271;-71
2021/07/14 04:05:13;;;;;;;;;;;;;;;18.91;76.57;101407.47;5114267;28;19924;-71
2021/07/14 04:07:42;;;;;;;;;;;;;;;18.84;77.54;101418.63;5114434;28;19931;-71
2021/07/14 04:10:09;;;;;;;;;;;;;;;18.89;77.91;101413.84;5114195;28;19924;-71
2021/07/14 04:12:36;;;;;;;;;;;;;;;19.00;77.90;101405.88;5114695;28;19924;-71
2021/07/14 04:15:03;;;;;;;;;;;;;;;18.97;78.31;101406.16;5113828;28;20294;-71
2021/07/14 04:17:29;;;;;;;;;;;;;;;19.13;77.91;101418.94;5113982;28;19981;-71
2021/07/14 04:19:57;;;;;;;;;;;;;;;19.21;77.97;101423.59;5114011;28;19923;-71
2021/07/14 04:22:24;;;;;;;;;;;;;;;19.09;78.15;101420.16;5113971;28;19928;-71
2021/07/14 04:24:50;;;;;;;;;;;;;;;19.17;78.58;101422.19;5113892;28;20316;-70
2021/07/14 04:27:17;;;;;;;;;;;;;;;19.31;78.23;101411.31;5113971;28;19923;-71
2021/07/14 04:29:44;;;;;;;;;;;;;;;19.43;78.51;101412.13;5114129;28;19923;-71
2021/07/14 04:32:10;;;;;;;;;;;;;;;19.40;78.70;101415.88;5113458;28;19928;-71
2021/07/14 04:34:37;;;;;;;;;;;;;;;19.55;78.00;101413.78;5114081;28;19924;-71
2021/07/14 04:37:05;;;;;;;;;;;;;;;19.54;78.04;101420.00;5114042;28;19956;-70
2021/07/14 04:39:31;;;;;;;;;;;;;;;19.63;78.40;101413.13;5113308;28;19928;-71
2021/07/14 04:41:58;;;;;;;;;;;;;;;19.65;78.13;101409.41;5113449;28;19931;-71
2021/07/14 04:44:34;;;;;;;;;;;;;;;19.74;78.21;101407.81;5113552;28;19934;-71
2021/07/14 04:47:01;;;;;;;;;;;;;;;19.67;78.35;101404.84;5113853;28;19923;-71
2021/07/14 04:49:28;;;;;;;;;;;;;;;19.91;78.40;101396.69;5113520;28;19931;-71
2021/07/14 04:51:54;;;;;;;;;;;;;;;20.18;77.16;101403.22;5113346;28;19934;-71
2021/07/14 04:54:23;;;;;;;;;;;;;;;20.37;76.71;101398.06;5113091;28;20305;-71
2021/07/14 04:56:50;;;;;;;;;;;;;;;20.36;77.22;101398.16;5113232;28;19924;-70
2021/07/14 04:59:17;;;;;;;;;;;;;;;20.47;76.71;101397.22;5113077;28;19924;-71
2021/07/14 05:01:44;;;;;;;;;;;;;;;20.51;76.80;101388.06;5113524;28;19931;-73
2021/07/14 05:04:12;;;;;;;;;;;;;;;20.53;77.19;101394.06;5112803;28;19931;-73
2021/07/14 05:06:38;;;;;;;;;;;;;;;20.88;75.96;101391.00;5113255;28;19931;-71
2021/07/14 05:09:05;;;;;;;;;;;;;;;20.64;76.73;101397.47;5113178;28;19928;-71
2021/07/14 05:11:33;;;;;;;;;;;;;;;20.56;77.46;101394.66;5113619;28;19924;-72
2021/07/14 05:14:00;;;;;;;;;;;;;;;20.87;76.64;101405.19;5113445;28;19924;-73
2021/07/14 05:16:26;;;;;;;;;;;;;;;21.25;75.52;101400.94;5112767;28;19924;-73
2021/07/14 05:18:53;;;;;;;;;;;;;;;21.47;75.63;101403.31;5113320;28;19924;-71
2021/07/14 05:21:20;;;;;;;;;;;;;;;21.23;75.56;101401.06;5113021;28;19924;-71
2021/07/14 05:23:46;;;;;;;;;;;;;;;21.51;74.81;101395.97;5113564;28;19930;-71
2021/07/14 05:26:13;;;;;;;;;;;;;;;21.58;75.05;101397.06;5112926;28;19931;-73
2021/07/14 05:28:41;;;;;;;;;;;;;;;21.60;74.29;101399.56;5112231;28;19924;-73
2021/07/14 05:31:07;;;;;;;;;;;;;;;21.99;73.42;101408.31;5113174;28;19923;-73
2021/07/14 05:33:34;;;;;;;;;;;;;;;22.26;72.66;101412.03;5112676;28;20301;-71
2021/07/14 05:36:00;;;;;;;;;;;;;;;22.38;71.78;101402.91;5113036;28;19931;-71
2021/07/14 05:38:28;;;;;;;;;;;;;;;22.08;73.93;101406.59;5112563;28;19931;-71
2021/07/14 05:40:55;;;;;;;;;;;;;;;22.32;72.64;101412.25;5112648;28;20336;-71
2021/07/14 05:43:22;;;;;;;;;;;;;;;22.66;72.69;101402.91;5112885;28;19928;-71
2021/07/14 05:45:50;;;;;;;;;;;;;;;22.90;70.29;101407.69;5113089;28;19924;-73
2021/07/14 05:48:16;;;;;;;;;;;;;;;22.28;72.41;101412.72;5112603;28;19931;-71
2021/07/14 05:50:45;;;;;;;;;;;;;;;22.20;72.83;101408.13;5112913;28;19955;-71
2021/07/14 05:53:12;;;;;;;;;;;;;;;21.30;75.51;101406.66;5112408;28;19923;-71
2021/07/14 05:55:38;;;;;;;;;;;;;;;21.02;77.01;101410.94;5112608;28;20378;-70
2021/07/14 05:58:05;;;;;;;;;;;;;;;21.44;75.96;101405.44;5112592;28;19935;-71
2021/07/14 06:00:32;;;;;;;;;;;;;;;21.74;75.57;101402.63;5112195;28;19924;-71
2021/07/14 06:03:00;;;;;;;;;;;;;;;21.46;75.23;101399.03;5112831;28;19924;-71
2021/07/14 06:05:27;;;;;;;;;;;;;;;21.61;74.97;101402.09;5112530;28;19924;-70
2021/07/14 06:07:54;;;;;;;;;;;;;;;21.82;74.75;101409.88;5112934;28;19924;-71
2021/07/14 06:10:20;;;;;;;;;;;;;;;21.21;75.71;101399.53;5112238;28;20378;-71
2021/07/14 06:12:47;;;;;;;;;;;;;;;21.40;75.23;101402.25;5112887;28;19923;-71
2021/07/14 06:15:13;;;;;;;;;;;;;;;21.69;74.07;101410.16;5112226;28;19924;-71
2021/07/14 06:17:40;;;;;;;;;;;;;;;22.25;72.62;101413.00;5112815;28;20289;-71
2021/07/14 06:20:09;;;;;;;;;;;;;;;22.25;72.43;101405.91;5112900;28;19930;-73
2021/07/14 06:22:35;;;;;;;;;;;;;;;22.03;72.55;101414.97;5112621;28;19927;-73
2021/07/14 06:25:02;;;;;;;;;;;;;;;21.62;74.06;101419.63;5112470;28;19953;-73
2021/07/14 06:27:29;;;;;;;;;;;;;;;21.29;75.06;101408.44;5112511;28;20297;-73
2021/07/14 06:29:55;;;;;;;;;;;;;;;21.49;75.04;101411.97;5112643;28;19928;-73
2021/07/14 06:32:22;;;;;;;;;;;;;;;21.49;74.47;101404.03;5112024;28;19924;-73
2021/07/14 06:34:48;;;;;;;;;;;;;;;21.44;74.85;101411.56;5112662;28;19932;-73
2021/07/14 06:37:16;;;;;;;;;;;;;;;21.61;74.84;101409.19;5112320;28;19934;-73
2021/07/14 06:39:43;;;;;;;;;;;;;;;21.55;74.05;101415.03;5115474;28;20041;-71
2021/07/14 06:42:10;;;;;;;;;;;;;;;21.56;74.67;101414.06;5115554;28;20305;-70
2021/07/14 06:44:37;;;;;;;;;;;;;;;21.50;74.36;101413.66;5116089;28;19981;-73
2021/07/14 06:47:04;;;;;;;;;;;;;;;21.73;73.66;101427.44;5116133;28;19924;-72
2021/07/14 06:49:31;;;;;;;;;;;;;;;21.64;73.02;101425.63;5115611;28;20415;-71
2021/07/14 06:51:58;;;;;;;;;;;;;;;21.87;72.12;101433.28;5115880;28;19923;-70
2021/07/14 06:54:26;;;;;;;;;;;;;;;21.75;72.91;101425.47;5115464;28;20366;-70
2021/07/14 06:56:52;;;;;;;;;;;;;;;21.89;73.01;101428.69;5115502;28;20285;-70
2021/07/14 06:59:19;;;;;;;;;;;;;;;22.45;71.38;101429.66;5115600;28;19923;-70
2021/07/14 07:01:46;;;;;;;;;;;;;;;22.51;70.93;101431.75;5115323;28;19927;-71
2021/07/14 07:04:12;;;;;;;;;;;;;;;22.66;70.50;101432.06;5115130;28;20382;-72
2021/07/14 07:06:39;;;;;;;;;;;;;;;22.66;69.89;101424.97;5115360;28;19970;-72
2021/07/14 07:09:06;;;;;;;;;;;;;;;22.13;71.97;101439.63;5115764;28;19928;-72
2021/07/14 07:11:35;;;;;;;;;;;;;;;22.23;71.72;101434.34;5114962;28;19928;-72
2021/07/14 07:14:01;;;;;;;;;;;;;;;22.65;71.10;101431.25;5115555;28;19924;-71
2021/07/14 07:16:28;;;;;;;;;;;;;;;23.02;69.68;101430.41;5115314;28;20373;-70
2021/07/14 07:18:54;;;;;;;;;;;;;;;23.27;69.15;101436.78;5115501;28;19923;-70
2021/07/14 07:21:21;;;;;;;;;;;;;;;23.44;68.76;101437.78;5114891;28;20390;-70
2021/07/14 07:23:48;;;;;;;;;;;;;;;23.83;67.53;101440.97;5115454;28;19924;-70
2021/07/14 07:26:14;;;;;;;;;;;;;;;24.19;65.65;101437.38;5115101;28;19931;-70
2021/07/14 07:28:42;;;;;;;;;;;;;;;23.47;67.35;101437.47;5115081;28;19924;-71
2021/07/14 07:31:09;;;;;;;;;;;;;;;24.12;65.41;101439.81;5114936;28;20389;-70
2021/07/14 07:33:36;;;;;;;;;;;;;;;25.34;61.89;101434.22;5114695;28;19935;-71
2021/07/14 07:36:03;;;;;;;;;;;;;;;24.82;62.88;101436.22;5114748;28;19931;-71
2021/07/14 07:38:30;;;;;;;;;;;;;;;24.12;64.42;101440.69;5114846;28;20739;-71
2021/07/14 07:40:57;;;;;;;;;;;;;;;24.69;62.99;101426.03;5114700;28;19935;-71
2021/07/14 07:43:24;;;;;;;;;;;;;;;24.75;62.70;101439.53;5114696;28;19931;-72
2021/07/14 07:45:52;;;;;;;;;;;;;;;23.51;66.39;101438.84;5114773;28;19923;-72
2021/07/14 07:48:19;;;;;;;;;;;;;;;24.27;64.04;101437.44;5114365;28;19924;-72
2021/07/14 07:50:48;;;;;;;;;;;;;;;24.83;62.40;101429.91;5114199;28;19947;-72
2021/07/14 07:53:14;;;;;;;;;;;;;;;25.17;61.30;101429.84;5114137;28;19931;-72
2021/07/14 07:55:41;;;;;;;;;;;;;;;25.14;61.32;101430.16;5114807;28;19931;-72
2021/07/14 07:58:08;;;;;;;;;;;;;;;25.33;60.91;101426.38;5114201;28;19946;-72
2021/07/14 08:00:34;;;;;;;;;;;;;;;26.52;57.67;101428.44;5114498;28;19923;-72
2021/07/14 08:03:02;;;;;;;;;;;;;;;26.64;57.36;101442.22;5114471;28;19931;-72
2021/07/14 08:05:29;;;;;;;;;;;;;;;26.32;57.70;101432.50;5114385;28;19928;-72
2021/07/14 08:07:58;;;;;;;;;;;;;;;27.57;54.74;101431.50;5113873;28;20251;-72
2021/07/14 08:10:24;;;;;;;;;;;;;;;28.72;51.25;101433.03;5114226;28;19931;-72
2021/07/14 08:12:51;;;;;;;;;;;;;;;29.04;50.69;101428.22;5114156;28;19931;-72
2021/07/14 08:15:18;;;;;;;;;;;;;;;28.53;51.21;101436.28;5114063;28;19930;-72
2021/07/14 08:17:44;;;;;;;;;;;;;;;27.47;53.77;101433.59;5114023;28;19924;-72
2021/07/14 08:20:13;;;;;;;;;;;;;;;28.35;51.87;101439.28;5113832;28;19928;-71
2021/07/14 08:22:39;;;;;;;;;;;;;;;28.06;52.48;101448.16;5113981;28;19930;-70
2021/07/14 08:25:07;;;;;;;;;;;;;;;28.56;51.93;101444.75;5113923;28;19934;-70
2021/07/14 08:27:34;;;;;;;;;;;;;;;29.16;48.82;101436.59;5113399;28;20378;-70
2021/07/14 08:30:00;;;;;;;;;;;;;;;28.16;52.17;101446.03;5114115;28;19923;-70
2021/07/14 08:32:27;;;;;;;;;;;;;;;28.15;52.04;101452.38;5114040;28;19924;-70
2021/07/14 08:34:54;;;;;;;;;;;;;;;27.28;54.85;101445.59;5114150;28;20297;-70
2021/07/14 08:37:22;;;;;;;;;;;;;;;27.62;55.00;101444.34;5113761;28;19923;-70
2021/07/14 08:39:49;;;;;;;;;;;;;;;28.74;50.88;101446.22;5113561;28;20022;-72
2021/07/14 08:42:17;;;;;;;;;;;;;;;28.43;52.71;101447.22;5113330;28;20402;-71
2021/07/14 08:44:44;;;;;;;;;;;;;;;30.08;48.16;101439.28;5113460;28;19923;-71
2021/07/14 08:47:11;;;;;;;;;;;;;;;30.84;46.63;101440.31;5113234;28;19928;-71
2021/07/14 08:49:37;;;;;;;;;;;;;;;30.21;48.32;101432.31;5113601;28;19924;-71
2021/07/14 08:52:04;;;;;;;;;;;;;;;30.08;47.84;101438.44;5113884;28;19931;-71
2021/07/14 08:54:33;;;;;;;;;;;;;;;29.79;48.85;101434.94;5113651;28;19933;-72
2021/07/14 08:56:59;;;;;;;;;;;;;;;30.71;47.00;101433.00;5113232;28;19934;-71
2021/07/14 08:59:26;;;;;;;;;;;;;;;30.59;46.57;101440.81;5113438;28;19927;-73
2021/07/14 09:01:52;;;;;;;;;;;;;;;30.41;47.08;101433.28;5112212;28;20404;-73
2021/07/14 09:04:19;;;;;;;;;;;;;;;30.26;47.80;101435.28;5113518;28;19930;-73
2021/07/14 09:06:46;;;;;;;;;;;;;;;30.53;47.59;101431.69;5113612;28;19923;-73
2021/07/14 09:09:12;;;;;;;;;;;;;;;31.36;46.64;101431.50;5113233;28;19931;-73
2021/07/14 09:11:51;;;;;;;;;;;;;;;30.92;45.24;101427.50;5113209;28;19924;-73
2021/07/14 09:14:28;;;;;;;;;;;;;;;30.58;46.94;101431.09;5113422;28;19924;-72
2021/07/14 09:16:54;;;;;;;;;;;;;;;31.04;45.99;101433.13;5113116;28;19924;-71
2021/07/14 09:19:24;;;;;;;;;;;;;;;32.85;40.25;101440.78;5113382;28;19924;-71
2021/07/14 09:21:50;;;;;;;;;;;;;;;31.72;43.29;101434.88;5112861;28;19930;-72
2021/07/14 09:24:27;;;;;;;;;;;;;;;32.28;42.50;101432.50;5113080;28;19924;-71
2021/07/14 09:26:56;;;;;;;;;;;;;;;31.84;44.35;101433.22;5113215;28;19924;-71
2021/07/14 09:29:22;;;;;;;;;;;;;;;32.22;42.56;101435.25;5112902;28;19924;-72
2021/07/14 09:31:49;;;;;;;;;;;;;;;31.68;44.44;101424.53;5112895;28;19924;-71
2021/07/14 09:34:23;;;;;;;;;;;;;;;31.38;44.45;101439.41;5112602;28;20401;-72
2021/07/14 09:36:49;;;;;;;;;;;;;;;30.79;45.04;101433.66;5112696;28;19924;-71
2021/07/14 09:39:16;;;;;;;;;;;;;;;30.70;46.55;101439.41;5112918;28;19931;-70
2021/07/14 09:41:47;;;;;;;;;;;;;;;32.32;42.56;101435.63;5113025;28;19924;-71
2021/07/14 09:44:23;;;;;;;;;;;;;;;33.18;40.05;101437.09;5112880;28;19923;-70
2021/07/14 09:47:04;;;;;;;;;;;;;;;33.02;40.11;101434.94;5113079;28;19924;-71
2021/07/14 09:49:35;;;;;;;;;;;;;;;33.66;39.57;101422.25;5112308;28;20006;-71
2021/07/14 09:52:05;;;;;;;;;;;;;;;35.03;36.69;101430.81;5112737;28;19969;-71
2021/07/14 09:54:32;;;;;;;;;;;;;;;34.66;37.13;101422.81;5112737;28;19924;-71
2021/07/14 09:57:07;;;;;;;;;;;;;;;35.21;35.71;101429.94;5112656;28;19924;-71
2021/07/14 09:59:35;;;;;;;;;;;;;;;35.13;35.53;101435.69;5112288;28;19924;-71
2021/07/14 10:02:02;;;;;;;;;;;;;;;34.99;35.26;101434.22;5112341;28;19923;-72
2021/07/14 10:04:30;;;;;;;;;;;;;;;34.17;35.85;101432.75;5112379;28;19923;-71
2021/07/14 10:07:06;;;;;;;;;;;;;;;33.57;36.52;101427.91;5112543;28;20337;-71
2021/07/14 10:09:33;;;;;;;;;;;;;;;34.28;35.78;101435.75;5112349;28;19939;-72
2021/07/14 10:12:15;;;;;;;;;;;;;;;35.99;32.17;101422.59;5112496;28;19924;-72
2021/07/14 10:14:43;;;;;;;;;;;;;;;33.88;36.19;101423.47;5115284;28;19924;-71
2021/07/14 10:17:09;;;;;;;;;;;;;;;34.77;32.78;101426.63;5116265;28;19924;-72
2021/07/14 10:19:36;;;;;;;;;;;;;;;35.46;30.69;101421.66;5116481;28;20243;-72
2021/07/14 10:22:02;;;;;;;;;;;;;;;36.13;30.84;101421.31;5116552;28;19924;-72
2021/07/14 10:24:29;;;;;;;;;;;;;;;36.53;30.36;101430.50;5116578;28;19924;-72
2021/07/14 10:26:56;;;;;;;;;;;;;;;36.86;27.34;101437.91;5116562;28;19924;-71
2021/07/14 10:29:23;;;;;;;;;;;;;;;35.95;26.74;101429.56;5115890;28;20293;-71
2021/07/14 10:31:51;;;;;;;;;;;;;;;35.91;28.73;101425.66;5116136;28;20389;-71
2021/07/14 10:34:20;;;;;;;;;;;;;;;35.48;27.97;101433.06;5116094;28;19927;-71
2021/07/14 10:36:51;;;;;;;;;;;;;;;35.47;25.36;101433.28;5116285;28;20018;-71
2021/07/14 10:39:18;;;;;;;;;;;;;;;34.27;27.26;101426.81;5118228;28;19928;-71
2021/07/14 10:41:45;;;;;;;;;;;;;;;35.07;28.23;101428.50;5116007;28;19930;-71
2021/07/14 10:44:14;;;;;;;;;;;;;;;35.27;30.05;101430.91;5116109;28;19969;-71
2021/07/14 10:46:40;;;;;;;;;;;;;;;34.87;32.91;101429.59;5115790;28;19924;-72
2021/07/14 10:49:09;;;;;;;;;;;;;;;35.10;33.83;101430.75;5116109;28;19924;-71
2021/07/14 10:51:37;;;;;;;;;;;;;;;36.42;31.79;101429.47;5115757;28;20378;-71
2021/07/14 10:54:05;;;;;;;;;;;;;;;34.54;35.83;101437.31;5116074;28;19928;-71
2021/07/14 10:56:34;;;;;;;;;;;;;;;34.54;36.34;101424.63;5115488;28;19924;-71
2021/07/14 10:59:01;;;;;;;;;;;;;;;36.70;31.51;101433.28;5115873;28;19970;-71
2021/07/14 11:01:43;;;;;;;;;;;;;;;37.19;31.20;101433.66;5115528;28;19927;-72
2021/07/14 11:04:35;;;;;;;;;;;;;;;37.70;28.74;101426.34;5115529;28;19923;-71
2021/07/14 11:07:04;;;;;;;;;;;;;;;37.86;29.63;101436.31;5115305;28;19976;-71
2021/07/14 11:09:32;;;;;;;;;;;;;;;36.47;30.07;101424.16;5115227;28;19934;-71
2021/07/14 11:11:58;;;;;;;;;;;;;;;36.81;27.92;101425.09;5115328;28;19927;-72
2021/07/14 11:14:34;;;;;;;;;;;;;;;35.69;29.53;101423.56;5114887;28;20294;-71
2021/07/14 11:17:00;;;;;;;;;;;;;;;34.55;30.54;101431.66;5115388;28;19931;-71
2021/07/14 11:19:42;;;;;;;;;;;;;;;32.83;34.07;101440.19;5114959;28;20274;-71
2021/07/14 11:22:09;;;;;;;;;;;;;;;34.97;30.32;101439.03;5115507;28;19927;-71
2021/07/14 11:24:55;;;;;;;;;;;;;;;35.35;29.75;101430.59;5114618;28;19924;-71
2021/07/14 11:27:44;;;;;;;;;;;;;;;36.13;27.08;101431.31;5114756;27;19923;-72
2021/07/14 11:30:28;;;;;;;;;;;;;;;36.78;27.38;101443.75;5114842;28;20382;-72
2021/07/14 11:32:56;;;;;;;;;;;;;;;36.67;28.42;101431.06;5114846;28;19923;-71
2021/07/14 11:35:26;;;;;;;;;;;;;;;35.22;29.64;101423.50;5114703;28;19924;-71
2021/07/14 11:37:56;;;;;;;;;;;;;;;36.35;24.79;101432.34;5115095;28;19931;-71
2021/07/14 11:40:40;;;;;;;;;;;;;;;36.12;25.61;101424.25;5114713;28;20443;-71
2021/07/14 11:43:18;;;;;;;;;;;;;;;35.99;23.37;101425.28;5114941;28;19923;-72
2021/07/14 11:45:46;;;;;;;;;;;;;;;36.40;23.19;101416.19;5114715;28;19927;-72
2021/07/14 11:48:14;;;;;;;;;;;;;;;36.67;22.96;101426.47;5114466;28;20385;-72
2021/07/14 11:50:54;;;;;;;;;;;;;;;37.56;21.72;101428.59;5114287;28;20266;-71
2021/07/14 11:53:31;;;;;;;;;;;;;;;37.78;22.17;101425.91;5114783;28;19931;-71
2021/07/14 11:55:58;;;;;;;;;;;;;;;37.25;23.25;101428.06;5114515;28;19924;-71
2021/07/14 11:58:39;;;;;;;;;;;;;;;35.30;23.21;101427.75;5114184;28;19923;-71
2021/07/14 12:01:08;;;;;;;;;;;;;;;36.69;21.87;101426.25;5114130;28;19947;-71
2021/07/14 12:03:35;;;;;;;;;;;;;;;36.42;21.95;101424.88;5114568;28;19930;-71
2021/07/14 12:06:04;;;;;;;;;;;;;;;35.65;24.25;101430.50;5114443;28;19931;-72
2021/07/14 12:08:37;;;;;;;;;;;;;;;35.29;23.84;101423.38;5114020;28;19924;-72
2021/07/14 12:11:03;;;;;;;;;;;;;;;35.53;22.24;101432.34;5114103;28;19927;-71
2021/07/14 12:13:30;;;;;;;;;;;;;;;34.92;24.19;101428.91;5113770;28;19927;-71
2021/07/14 12:15:57;;;;;;;;;;;;;;;35.42;24.78;101428.56;5113673;28;20296;-72
2021/07/14 12:18:23;;;;;;;;;;;;;;;34.98;23.12;101427.97;5114313;28;19931;-72
2021/07/14 12:20:50;;;;;;;;;;;;;;;35.29;22.95;101417.97;5114228;28;19931;-72
2021/07/14 12:23:19;;;;;;;;;;;;;;;34.85;22.48;101429.00;5114056;28;19924;-72
2021/07/14 12:25:45;;;;;;;;;;;;;;;33.97;24.47;101422.13;5114144;28;19946;-71
2021/07/14 12:28:13;;;;;;;;;;;;;;;34.42;23.67;101424.53;5113535;28;19924;-71
2021/07/14 12:30:41;;;;;;;;;;;;;;;34.53;24.13;101425.69;5113791;28;20374;-73
2021/07/14 12:33:08;;;;;;;;;;;;;;;34.67;23.65;101429.06;5113882;28;19924;-72
2021/07/14 12:35:36;;;;;;;;;;;;;;;33.83;25.99;101418.75;5113789;28;19930;-72
2021/07/14 12:38:06;;;;;;;;;;;;;;;33.92;25.50;101416.59;5113952;28;19945;-73
2021/07/14 12:40:35;;;;;;;;;;;;;;;34.16;25.54;101419.47;5113753;28;19924;-73
2021/07/14 12:43:04;;;;;;;;;;;;;;;33.01;25.02;101412.50;5113511;28;20492;-72
2021/07/14 12:45:31;;;;;;;;;;;;;;;33.58;26.15;101418.78;5113649;28;19935;-72
2021/07/14 12:48:01;;;;;;;;;;;;;;;33.20;27.02;101416.16;5113725;28;19923;-72